Aviation Digital Data Service (ADDS)

Output produced by METARs form (0346 UTC 20 April 2014)
found at http://aviationweather.gov/adds/metars/
 
KORH 192323Z 2000/2024 34008KT P6SM SKC 
     FM201300 04006KT P6SM SKC 
     FM201700 11006KT P6SM SKC